Private Wetterstation Sandau
Wetterdaten: Mittwoch, 04.07.2012
Datum Zeit Temp. A. Feuchte A. Luftdruck Regen Wind Richtung Richtung Taupunkt Windchill
04.07.2012 00:01 18,6 C 79 % 1018,3 hPa 0,0 l/m 1,4 km/h (1 Bft) N-NO 22 14,9 C 18,6 C
04.07.2012 00:06 18,5 C 80 % 1018,4 hPa 0,0 l/m 2,2 km/h (1 Bft) N-NO 22 15,0 C 18,5 C
04.07.2012 00:11 18,4 C 80 % 1018,4 hPa 0,0 l/m 0,0 km/h (0 Bft) N-NO 22 14,9 C 18,4 C
04.07.2012 00:16 18,4 C 81 % 1018,3 hPa 0,0 l/m 0,0 km/h (0 Bft) N-NO 22 15,1 C 18,4 C
04.07.2012 00:21 18,4 C 81 % 1018,5 hPa 0,0 l/m 0,0 km/h (0 Bft) N-NO 22 15,1 C 18,4 C
04.07.2012 00:26 18,4 C 81 % 1018,5 hPa 0,0 l/m 1,4 km/h (1 Bft) N-NO 22 15,1 C 18,4 C
04.07.2012 00:31 18,4 C 81 % 1018,5 hPa 0,0 l/m 0,0 km/h (0 Bft) NO 45 15,1 C 18,4 C
04.07.2012 00:36 18,4 C 81 % 1018,5 hPa 0,0 l/m 2,2 km/h (1 Bft) N 360 15,1 C 18,4 C
04.07.2012 00:41 18,4 C 81 % 1018,5 hPa 0,0 l/m 0,0 km/h (0 Bft) N-NO 22 15,1 C 18,4 C
04.07.2012 00:46 18,4 C 81 % 1018,4 hPa 0,0 l/m 2,2 km/h (1 Bft) N 360 15,1 C 18,4 C
04.07.2012 00:51 18,3 C 81 % 1018,3 hPa 0,0 l/m 0,0 km/h (0 Bft) NO 45 15,0 C 18,3 C
04.07.2012 00:56 18,3 C 82 % 1018,2 hPa 0,0 l/m 0,0 km/h (0 Bft) NO 45 15,2 C 18,3 C
04.07.2012 01:01 18,3 C 82 % 1018,1 hPa 0,0 l/m 1,8 km/h (1 Bft) O-NO 67 15,2 C 18,3 C
04.07.2012 01:06 18,3 C 82 % 1018,2 hPa 0,0 l/m 2,2 km/h (1 Bft) O-NO 67 15,2 C 18,3 C
04.07.2012 01:11 18,3 C 82 % 1018,0 hPa 0,0 l/m 4,0 km/h (1 Bft) O-NO 67 15,2 C 18,3 C
04.07.2012 01:16 18,3 C 82 % 1018,1 hPa 0,0 l/m 4,3 km/h (1 Bft) O-NO 67 15,2 C 18,3 C
04.07.2012 01:21 18,3 C 82 % 1018,2 hPa 0,0 l/m 4,0 km/h (1 Bft) O-NO 67 15,2 C 18,3 C
04.07.2012 01:26 18,3 C 82 % 1018,1 hPa 0,0 l/m 0,0 km/h (0 Bft) NO 45 15,2 C 18,3 C
04.07.2012 01:31 18,2 C 82 % 1018,2 hPa 0,0 l/m 2,9 km/h (1 Bft) NO 45 15,1 C 18,2 C
04.07.2012 01:36 18,2 C 82 % 1018,2 hPa 0,0 l/m 0,0 km/h (0 Bft) O-NO 67 15,1 C 18,2 C
04.07.2012 01:41 18,1 C 82 % 1018,2 hPa 0,0 l/m 0,0 km/h (0 Bft) O-NO 67 15,0 C 18,1 C
04.07.2012 01:46 18,1 C 82 % 1018,1 hPa 0,0 l/m 6,8 km/h (2 Bft) O 90 15,0 C 18,1 C
04.07.2012 01:51 17,9 C 82 % 1018,1 hPa 0,0 l/m 5,0 km/h (1 Bft) O-NO 67 14,8 C 17,9 C
04.07.2012 01:56 17,9 C 82 % 1018,0 hPa 0,0 l/m 4,3 km/h (1 Bft) O-NO 67 14,8 C 17,9 C
04.07.2012 02:01 17,8 C 82 % 1018,1 hPa 0,0 l/m 5,8 km/h (2 Bft) O-NO 67 14,7 C 17,8 C
04.07.2012 02:06 17,6 C 82 % 1018,1 hPa 0,0 l/m 2,5 km/h (1 Bft) O-NO 67 14,5 C 17,6 C
04.07.2012 02:11 17,6 C 82 % 1018,0 hPa 0,0 l/m 4,0 km/h (1 Bft) NO 45 14,5 C 17,6 C
04.07.2012 02:16 17,5 C 82 % 1018,0 hPa 0,0 l/m 4,0 km/h (1 Bft) O 90 14,4 C 17,5 C
04.07.2012 02:21 17,4 C 83 % 1018,0 hPa 0,0 l/m 4,7 km/h (1 Bft) O-NO 67 14,5 C 17,4 C
04.07.2012 02:26 17,3 C 83 % 1018,1 hPa 0,0 l/m 7,6 km/h (2 Bft) O-NO 67 14,4 C 17,3 C
04.07.2012 02:31 17,2 C 83 % 1018,1 hPa 0,0 l/m 6,5 km/h (2 Bft) NO 45 14,3 C 17,2 C
04.07.2012 02:36 17,1 C 84 % 1018,2 hPa 0,0 l/m 5,0 km/h (1 Bft) O-NO 67 14,4 C 17,1 C
04.07.2012 02:41 17,1 C 84 % 1018,2 hPa 0,0 l/m 4,7 km/h (1 Bft) O-NO 67 14,4 C 17,1 C
04.07.2012 02:46 17,0 C 84 % 1018,1 hPa 0,0 l/m 5,8 km/h (2 Bft) O-NO 67 14,3 C 17,0 C
04.07.2012 02:51 16,9 C 84 % 1018,1 hPa 0,0 l/m 4,7 km/h (1 Bft) O-NO 67 14,2 C 16,9 C
04.07.2012 02:56 16,9 C 84 % 1018,2 hPa 0,0 l/m 2,2 km/h (1 Bft) O 90 14,2 C 16,9 C
04.07.2012 03:01 16,9 C 84 % 1018,0 hPa 0,0 l/m 2,9 km/h (1 Bft) O 90 14,2 C 16,9 C
04.07.2012 03:06 16,9 C 85 % 1018,0 hPa 0,0 l/m 3,2 km/h (1 Bft) O-SO 112 14,4 C 16,9 C
04.07.2012 03:11 16,9 C 85 % 1017,9 hPa 0,0 l/m 2,5 km/h (1 Bft) O-NO 67 14,4 C 16,9 C
04.07.2012 03:16 16,9 C 85 % 1017,9 hPa 0,0 l/m 6,1 km/h (2 Bft) O-NO 67 14,4 C 16,9 C
04.07.2012 03:21 16,8 C 85 % 1017,9 hPa 0,0 l/m 2,2 km/h (1 Bft) O-NO 67 14,3 C 16,8 C
04.07.2012 03:26 16,8 C 85 % 1017,9 hPa 0,0 l/m 3,2 km/h (1 Bft) O-NO 67 14,3 C 16,8 C
04.07.2012 03:31 16,7 C 85 % 1017,9 hPa 0,0 l/m 3,2 km/h (1 Bft) O-NO 67 14,2 C 16,7 C
04.07.2012 03:36 16,7 C 85 % 1017,9 hPa 0,0 l/m 3,6 km/h (1 Bft) O-NO 67 14,2 C 16,7 C
04.07.2012 03:41 16,7 C 86 % 1017,9 hPa 0,0 l/m 3,6 km/h (1 Bft) O 90 14,3 C 16,7 C
04.07.2012 03:46 16,8 C 86 % 1017,9 hPa 0,0 l/m 5,8 km/h (2 Bft) O-SO 112 14,4 C 16,8 C
04.07.2012 03:51 16,8 C 86 % 1017,9 hPa 0,0 l/m 0,0 km/h (0 Bft) O-NO 67 14,4 C 16,8 C
04.07.2012 03:56 16,8 C 86 % 1017,9 hPa 0,0 l/m 3,2 km/h (1 Bft) O-NO 67 14,4 C 16,8 C
04.07.2012 04:01 16,8 C 86 % 1017,9 hPa 0,0 l/m 2,9 km/h (1 Bft) O-NO 67 14,4 C 16,8 C
04.07.2012 04:06 16,8 C 86 % 1017,8 hPa 0,0 l/m 3,2 km/h (1 Bft) O 90 14,4 C 16,8 C
04.07.2012 04:11 16,8 C 86 % 1017,7 hPa 0,0 l/m 2,5 km/h (1 Bft) O-NO 67 14,4 C 16,8 C
04.07.2012 04:16 16,8 C 86 % 1017,8 hPa 0,0 l/m 4,7 km/h (1 Bft) O-SO 112 14,4 C 16,8 C
04.07.2012 04:21 16,8 C 86 % 1017,8 hPa 0,0 l/m 5,0 km/h (1 Bft) O-NO 67 14,4 C 16,8 C
04.07.2012 04:26 16,7 C 87 % 1017,8 hPa 0,0 l/m 2,2 km/h (1 Bft) O-NO 67 14,5 C 16,7 C
04.07.2012 04:31 16,7 C 87 % 1017,7 hPa 0,0 l/m 2,2 km/h (1 Bft) O-SO 112 14,5 C 16,7 C
04.07.2012 04:36 16,6 C 87 % 1017,5 hPa 0,0 l/m 2,9 km/h (1 Bft) O 90 14,4 C 16,6 C
04.07.2012 04:41 16,6 C 87 % 1017,6 hPa 0,0 l/m 2,9 km/h (1 Bft) O-NO 67 14,4 C 16,6 C
04.07.2012 04:46 16,5 C 87 % 1017,5 hPa 0,0 l/m 0,0 km/h (0 Bft) O-NO 67 14,3 C 16,5 C
04.07.2012 04:51 16,4 C 87 % 1017,6 hPa 0,0 l/m 1,4 km/h (1 Bft) O-SO 112 14,2 C 16,4 C
04.07.2012 04:56 16,4 C 87 % 1017,6 hPa 0,0 l/m 3,2 km/h (1 Bft) O-NO 67 14,2 C 16,4 C
04.07.2012 05:01 16,4 C 87 % 1017,5 hPa 0,0 l/m 2,5 km/h (1 Bft) O-NO 67 14,2 C 16,4 C
04.07.2012 05:06 16,4 C 87 % 1017,6 hPa 0,0 l/m 6,8 km/h (2 Bft) O-NO 67 14,2 C 16,4 C
04.07.2012 05:11 16,4 C 88 % 1017,6 hPa 0,0 l/m 1,8 km/h (1 Bft) O 90 14,4 C 16,4 C
04.07.2012 05:16 16,4 C 88 % 1017,6 hPa 0,0 l/m 3,6 km/h (1 Bft) O-SO 112 14,4 C 16,4 C
04.07.2012 05:21 16,3 C 88 % 1017,5 hPa 0,0 l/m 2,9 km/h (1 Bft) O 90 14,3 C 16,3 C
04.07.2012 05:26 16,3 C 88 % 1017,5 hPa 0,0 l/m 3,6 km/h (1 Bft) O-SO 112 14,3 C 16,3 C
04.07.2012 05:31 16,3 C 88 % 1017,4 hPa 0,0 l/m 0,0 km/h (0 Bft) O-NO 67 14,3 C 16,3 C
04.07.2012 05:36 16,3 C 88 % 1017,5 hPa 0,0 l/m 4,0 km/h (1 Bft) O-SO 112 14,3 C 16,3 C
04.07.2012 05:41 16,3 C 88 % 1017,4 hPa 0,0 l/m 0,0 km/h (0 Bft) O-NO 67 14,3 C 16,3 C
04.07.2012 05:46 16,4 C 88 % 1017,5 hPa 0,0 l/m 1,1 km/h (1 Bft) O 90 14,4 C 16,4 C
04.07.2012 05:51 16,4 C 88 % 1017,4 hPa 0,0 l/m 0,0 km/h (0 Bft) O-NO 67 14,4 C 16,4 C
04.07.2012 05:56 16,4 C 88 % 1017,4 hPa 0,0 l/m 0,0 km/h (0 Bft) SO 135 14,4 C 16,4 C
04.07.2012 06:01 16,5 C 88 % 1017,4 hPa 0,0 l/m 0,0 km/h (0 Bft) O 90 14,5 C 16,5 C
04.07.2012 06:06 16,6 C 88 % 1017,3 hPa 0,0 l/m 0,0 km/h (0 Bft) SO 135 14,6 C 16,6 C
04.07.2012 06:11 16,6 C 88 % 1017,3 hPa 0,0 l/m 0,0 km/h (0 Bft) O-SO 112 14,6 C 16,6 C
04.07.2012 06:16 16,7 C 88 % 1017,2 hPa 0,0 l/m 0,0 km/h (0 Bft) S-SO 157 14,7 C 16,7 C
04.07.2012 06:21 16,8 C 87 % 1017,2 hPa 0,0 l/m 2,2 km/h (1 Bft) O-NO 67 14,6 C 16,8 C
04.07.2012 06:26 16,9 C 87 % 1017,2 hPa 0,0 l/m 4,0 km/h (1 Bft) NO 45 14,7 C 16,9 C
04.07.2012 06:31 16,9 C 87 % 1017,3 hPa 0,0 l/m 0,0 km/h (0 Bft) O-NO 67 14,7 C 16,9 C
04.07.2012 06:36 17,1 C 87 % 1017,2 hPa 0,0 l/m 0,0 km/h (0 Bft) O-NO 67 14,9 C 17,1 C
04.07.2012 06:41 17,4 C 87 % 1017,2 hPa 0,0 l/m 2,2 km/h (1 Bft) O 90 15,2 C 17,4 C
04.07.2012 06:46 17,8 C 86 % 1017,2 hPa 0,0 l/m 0,0 km/h (0 Bft) O 90 15,4 C 17,8 C
04.07.2012 06:51 18,1 C 85 % 1017,2 hPa 0,0 l/m 4,0 km/h (1 Bft) O-NO 67 15,5 C 18,1 C
04.07.2012 06:56 18,3 C 84 % 1017,2 hPa 0,0 l/m 2,5 km/h (1 Bft) O-NO 67 15,5 C 18,3 C
04.07.2012 07:01 18,4 C 83 % 1017,2 hPa 0,0 l/m 4,7 km/h (1 Bft) O-NO 67 15,5 C 18,4 C
04.07.2012 07:06 18,4 C 83 % 1017,2 hPa 0,0 l/m 2,5 km/h (1 Bft) O-NO 67 15,5 C 18,4 C
04.07.2012 07:11 18,4 C 83 % 1017,1 hPa 0,0 l/m 1,8 km/h (1 Bft) S-SO 157 15,5 C 18,4 C
04.07.2012 07:16 18,4 C 83 % 1017,1 hPa 0,0 l/m 0,0 km/h (0 Bft) O 90 15,5 C 18,4 C
04.07.2012 07:21 18,5 C 83 % 1017,1 hPa 0,0 l/m 4,0 km/h (1 Bft) O-NO 67 15,6 C 18,5 C
04.07.2012 07:26 18,7 C 83 % 1017,2 hPa 0,0 l/m 4,0 km/h (1 Bft) O 90 15,8 C 18,7 C
04.07.2012 07:31 18,9 C 82 % 1017,2 hPa 0,0 l/m 5,4 km/h (1 Bft) NO 45 15,8 C 18,9 C
04.07.2012 07:36 19,2 C 81 % 1017,1 hPa 0,0 l/m 3,2 km/h (1 Bft) O-NO 67 15,9 C 19,2 C
04.07.2012 07:41 19,4 C 80 % 1017,2 hPa 0,0 l/m 2,9 km/h (1 Bft) O-NO 67 15,9 C 19,4 C
04.07.2012 07:46 19,6 C 80 % 1017,0 hPa 0,0 l/m 1,1 km/h (1 Bft) S-SO 157 16,1 C 19,6 C
04.07.2012 07:51 19,8 C 80 % 1017,0 hPa 0,0 l/m 4,3 km/h (1 Bft) O-NO 67 16,2 C 19,8 C
04.07.2012 07:56 19,9 C 79 % 1017,0 hPa 0,0 l/m 5,8 km/h (2 Bft) SO 135 16,1 C 19,9 C
04.07.2012 08:01 20,1 C 79 % 1017,3 hPa 0,0 l/m 4,0 km/h (1 Bft) O-NO 67 16,3 C 20,1 C
04.07.2012 08:06 20,2 C 78 % 1017,3 hPa 0,0 l/m 1,4 km/h (1 Bft) NO 45 16,2 C 20,2 C
04.07.2012 08:11 20,1 C 78 % 1017,4 hPa 0,0 l/m 6,1 km/h (2 Bft) O-SO 112 16,1 C 20,1 C
04.07.2012 08:16 20,1 C 78 % 1017,4 hPa 0,0 l/m 1,8 km/h (1 Bft) O-SO 112 16,1 C 20,1 C
04.07.2012 08:21 20,4 C 78 % 1017,4 hPa 0,0 l/m 4,0 km/h (1 Bft) SO 135 16,4 C 20,4 C
04.07.2012 08:26 20,4 C 77 % 1017,4 hPa 0,0 l/m 1,8 km/h (1 Bft) S-SO 157 16,2 C 20,4 C
04.07.2012 08:31 20,6 C 77 % 1017,4 hPa 0,0 l/m 5,0 km/h (1 Bft) NO 45 16,4 C 20,6 C
04.07.2012 08:36 20,6 C 77 % 1017,4 hPa 0,0 l/m 4,0 km/h (1 Bft) NO 45 16,4 C 20,6 C
04.07.2012 08:41 20,5 C 77 % 1017,4 hPa 0,0 l/m 6,1 km/h (2 Bft) N-NO 22 16,3 C 20,5 C
04.07.2012 08:46 20,4 C 77 % 1017,5 hPa 0,0 l/m 6,1 km/h (2 Bft) SO 135 16,2 C 20,4 C
04.07.2012 08:51 20,4 C 77 % 1017,4 hPa 0,0 l/m 7,9 km/h (2 Bft) O-SO 112 16,2 C 20,4 C
04.07.2012 08:56 20,3 C 76 % 1017,3 hPa 0,0 l/m 5,8 km/h (2 Bft) NO 45 15,9 C 20,3 C
04.07.2012 09:01 20,3 C 77 % 1017,4 hPa 0,0 l/m 6,1 km/h (2 Bft) NO 45 16,1 C 20,3 C
04.07.2012 09:06 20,3 C 77 % 1017,4 hPa 0,0 l/m 6,1 km/h (2 Bft) NO 45 16,1 C 20,3 C
04.07.2012 09:11 20,2 C 77 % 1017,4 hPa 0,0 l/m 6,8 km/h (2 Bft) O-NO 67 16,0 C 20,2 C
04.07.2012 09:16 20,2 C 77 % 1017,4 hPa 0,0 l/m 6,5 km/h (2 Bft) O 90 16,0 C 20,2 C
04.07.2012 09:21 20,3 C 78 % 1017,5 hPa 0,0 l/m 7,9 km/h (2 Bft) O 90 16,3 C 20,3 C
04.07.2012 09:26 20,4 C 78 % 1017,5 hPa 0,0 l/m 6,8 km/h (2 Bft) O 90 16,4 C 20,4 C
04.07.2012 09:31 20,6 C 77 % 1017,4 hPa 0,0 l/m 7,9 km/h (2 Bft) NO 45 16,4 C 20,6 C
04.07.2012 09:36 20,6 C 77 % 1017,4 hPa 0,0 l/m 9,0 km/h (2 Bft) O-NO 67 16,4 C 20,6 C
04.07.2012 09:41 20,6 C 77 % 1017,5 hPa 0,0 l/m 8,3 km/h (2 Bft) O-NO 67 16,4 C 20,6 C
04.07.2012 09:46 20,6 C 76 % 1017,5 hPa 0,0 l/m 9,7 km/h (2 Bft) NO 45 16,2 C 20,6 C
04.07.2012 09:51 20,4 C 77 % 1017,4 hPa 0,0 l/m 5,8 km/h (2 Bft) NO 45 16,2 C 20,4 C
04.07.2012 09:56 20,5 C 77 % 1017,5 hPa 0,0 l/m 4,0 km/h (1 Bft) NO 45 16,3 C 20,5 C
04.07.2012 10:01 20,3 C 76 % 1017,4 hPa 0,0 l/m 6,5 km/h (2 Bft) O 90 15,9 C 20,3 C
04.07.2012 10:06 20,2 C 76 % 1017,5 hPa 0,0 l/m 4,7 km/h (1 Bft) O-NO 67 15,8 C 20,2 C
04.07.2012 10:11 20,3 C 76 % 1017,5 hPa 0,0 l/m 3,6 km/h (1 Bft) NO 45 15,9 C 20,3 C
04.07.2012 10:16 20,4 C 76 % 1017,5 hPa 0,0 l/m 4,7 km/h (1 Bft) O 90 16,0 C 20,4 C
04.07.2012 10:21 20,3 C 76 % 1017,4 hPa 0,0 l/m 0,0 km/h (0 Bft) SO 135 15,9 C 20,3 C
04.07.2012 10:26 20,3 C 77 % 1017,5 hPa 0,0 l/m 6,5 km/h (2 Bft) O-SO 112 16,1 C 20,3 C
04.07.2012 10:31 20,4 C 77 % 1017,4 hPa 0,0 l/m 5,0 km/h (1 Bft) O-SO 112 16,2 C 20,4 C
04.07.2012 10:36 20,5 C 77 % 1017,4 hPa 0,0 l/m 5,4 km/h (1 Bft) O-NO 67 16,3 C 20,5 C
04.07.2012 10:41 20,8 C 77 % 1017,3 hPa 0,0 l/m 3,6 km/h (1 Bft) O 90 16,6 C 20,8 C
04.07.2012 10:46 20,9 C 76 % 1017,4 hPa 0,0 l/m 8,6 km/h (2 Bft) NO 45 16,5 C 20,9 C
04.07.2012 10:51 21,1 C 76 % 1017,3 hPa 0,0 l/m 5,8 km/h (2 Bft) O-NO 67 16,7 C 21,1 C
04.07.2012 10:56 21,4 C 75 % 1017,4 hPa 0,0 l/m 4,0 km/h (1 Bft) O 90 16,8 C 21,4 C
04.07.2012 11:01 21,6 C 74 % 1017,3 hPa 0,0 l/m 2,2 km/h (1 Bft) NO 45 16,8 C 21,6 C
04.07.2012 11:06 21,8 C 74 % 1017,2 hPa 0,0 l/m 2,2 km/h (1 Bft) NO 45 17,0 C 21,8 C
04.07.2012 11:11 21,9 C 73 % 1017,2 hPa 0,0 l/m 4,0 km/h (1 Bft) NO 45 16,8 C 21,9 C
04.07.2012 11:16 21,8 C 73 % 1017,1 hPa 0,0 l/m 1,8 km/h (1 Bft) O-NO 67 16,7 C 21,8 C
04.07.2012 11:21 21,8 C 73 % 1017,1 hPa 0,0 l/m 3,2 km/h (1 Bft) O-NO 67 16,7 C 21,8 C
04.07.2012 11:26 21,9 C 73 % 1017,1 hPa 0,0 l/m 2,5 km/h (1 Bft) SO 135 16,8 C 21,9 C
04.07.2012 11:31 22,2 C 73 % 1017,1 hPa 0,0 l/m 2,5 km/h (1 Bft) S-SO 157 17,1 C 22,2 C
04.07.2012 11:36 22,6 C 73 % 1017,1 hPa 0,0 l/m 6,1 km/h (2 Bft) SO 135 17,5 C 22,6 C
04.07.2012 11:41 22,9 C 71 % 1016,9 hPa 0,0 l/m 3,6 km/h (1 Bft) O-NO 67 17,4 C 22,9 C
04.07.2012 11:46 23,1 C 70 % 1017,1 hPa 0,0 l/m 4,7 km/h (1 Bft) NO 45 17,3 C 23,1 C
04.07.2012 11:51 23,1 C 70 % 1016,9 hPa 0,0 l/m 2,9 km/h (1 Bft) O-NO 67 17,3 C 23,1 C
04.07.2012 11:56 23,1 C 70 % 1016,9 hPa 0,0 l/m 9,4 km/h (2 Bft) NO 45 17,3 C 23,1 C
04.07.2012 12:01 23,1 C 69 % 1016,9 hPa 0,0 l/m 7,2 km/h (2 Bft) SO 135 17,1 C 23,1 C
04.07.2012 12:06 22,9 C 68 % 1016,9 hPa 0,0 l/m 7,2 km/h (2 Bft) NO 45 16,7 C 22,9 C
04.07.2012 12:11 22,8 C 68 % 1017,0 hPa 0,0 l/m 3,2 km/h (1 Bft) O 90 16,6 C 22,8 C
04.07.2012 12:16 22,8 C 68 % 1016,9 hPa 0,0 l/m 6,1 km/h (2 Bft) O-NO 67 16,6 C 22,8 C
04.07.2012 12:21 22,8 C 68 % 1016,9 hPa 0,0 l/m 3,2 km/h (1 Bft) N-NO 22 16,6 C 22,8 C
04.07.2012 12:26 22,8 C 69 % 1016,9 hPa 0,0 l/m 7,9 km/h (2 Bft) NO 45 16,8 C 22,8 C
04.07.2012 12:31 23,0 C 68 % 1016,9 hPa 0,0 l/m 3,6 km/h (1 Bft) O-NO 67 16,8 C 23,0 C
04.07.2012 12:36 22,9 C 67 % 1016,9 hPa 0,0 l/m 7,2 km/h (2 Bft) O 90 16,4 C 22,9 C
04.07.2012 12:41 22,8 C 67 % 1016,8 hPa 0,0 l/m 8,6 km/h (2 Bft) O-NO 67 16,3 C 22,8 C
04.07.2012 12:46 22,7 C 68 % 1016,8 hPa 0,0 l/m 7,2 km/h (2 Bft) O 90 16,5 C 22,7 C
04.07.2012 12:51 22,9 C 67 % 1016,8 hPa 0,0 l/m 5,0 km/h (1 Bft) NO 45 16,4 C 22,9 C
04.07.2012 12:56 23,1 C 67 % 1016,7 hPa 0,0 l/m 6,1 km/h (2 Bft) NO 45 16,6 C 23,1 C
04.07.2012 13:01 23,4 C 66 % 1016,8 hPa 0,0 l/m 7,2 km/h (2 Bft) O-NO 67 16,7 C 23,4 C
04.07.2012 13:06 23,9 C 65 % 1016,7 hPa 0,0 l/m 6,1 km/h (2 Bft) N 360 16,9 C 23,9 C
04.07.2012 13:11 24,1 C 63 % 1016,8 hPa 0,0 l/m 7,2 km/h (2 Bft) O 90 16,6 C 24,1 C
04.07.2012 13:16 23,9 C 63 % 1016,7 hPa 0,0 l/m 7,9 km/h (2 Bft) N-NO 22 16,4 C 23,9 C
04.07.2012 13:21 23,6 C 63 % 1016,6 hPa 0,0 l/m 4,7 km/h (1 Bft) N 360 16,1 C 23,6 C
04.07.2012 13:26 23,7 C 64 % 1016,6 hPa 0,0 l/m 0,0 km/h (0 Bft) NW 315 16,5 C 23,7 C
04.07.2012 13:31 24,0 C 62 % 1016,6 hPa 0,0 l/m 4,3 km/h (1 Bft) O-NO 67 16,3 C 24,0 C
04.07.2012 13:36 24,1 C 62 % 1016,5 hPa 0,0 l/m 5,0 km/h (1 Bft) SO 135 16,4 C 24,1 C
04.07.2012 13:41 24,3 C 62 % 1016,5 hPa 0,0 l/m 0,0 km/h (0 Bft) O-NO 67 16,5 C 24,3 C
04.07.2012 13:46 24,9 C 60 % 1016,4 hPa 0,0 l/m 7,9 km/h (2 Bft) O-NO 67 16,6 C 24,9 C
04.07.2012 13:51 25,2 C 59 % 1016,7 hPa 0,0 l/m 4,3 km/h (1 Bft) O-SO 112 16,6 C 25,2 C
04.07.2012 13:56 25,3 C 58 % 1016,6 hPa 0,0 l/m 4,3 km/h (1 Bft) O-SO 112 16,4 C 25,3 C
04.07.2012 14:01 25,4 C 57 % 1016,5 hPa 0,0 l/m 1,8 km/h (1 Bft) O 90 16,2 C 25,4 C
04.07.2012 14:06 25,6 C 57 % 1016,5 hPa 0,0 l/m 6,8 km/h (2 Bft) SO 135 16,4 C 25,6 C
04.07.2012 14:11 25,6 C 56 % 1016,5 hPa 0,0 l/m 4,0 km/h (1 Bft) O-SO 112 16,2 C 25,6 C
04.07.2012 14:16 25,6 C 57 % 1016,5 hPa 0,0 l/m 2,5 km/h (1 Bft) SO 135 16,4 C 25,6 C
04.07.2012 14:21 25,9 C 56 % 1016,5 hPa 0,0 l/m 3,6 km/h (1 Bft) NO 45 16,4 C 25,9 C
04.07.2012 14:26 25,8 C 56 % 1016,4 hPa 0,0 l/m 10,1 km/h (2 Bft) NO 45 16,3 C 25,8 C
04.07.2012 14:31 25,4 C 57 % 1016,4 hPa 0,0 l/m 6,1 km/h (2 Bft) O-NO 67 16,2 C 25,4 C
04.07.2012 14:36 25,2 C 57 % 1016,3 hPa 0,0 l/m 4,0 km/h (1 Bft) O 90 16,1 C 25,2 C
04.07.2012 14:41 25,3 C 57 % 1016,3 hPa 0,0 l/m 3,2 km/h (1 Bft) O-NO 67 16,2 C 25,3 C
04.07.2012 14:46 25,6 C 56 % 1016,2 hPa 0,0 l/m 2,2 km/h (1 Bft) NO 45 16,2 C 25,6 C
04.07.2012 14:51 25,9 C 55 % 1016,2 hPa 0,0 l/m 5,8 km/h (2 Bft) O 90 16,2 C 25,9 C
04.07.2012 14:56 25,8 C 55 % 1016,2 hPa 0,0 l/m 6,1 km/h (2 Bft) O-SO 112 16,1 C 25,8 C
04.07.2012 15:01 25,4 C 56 % 1016,2 hPa 0,0 l/m 6,1 km/h (2 Bft) O-NO 67 16,0 C 25,4 C
04.07.2012 15:06 24,9 C 56 % 1016,0 hPa 0,0 l/m 6,1 km/h (2 Bft) O-SO 112 15,5 C 24,9 C
04.07.2012 15:11 24,8 C 57 % 1016,0 hPa 0,0 l/m 3,6 km/h (1 Bft) NO 45 15,7 C 24,8 C
04.07.2012 15:16 24,8 C 57 % 1016,1 hPa 0,0 l/m 7,6 km/h (2 Bft) NO 45 15,7 C 24,8 C
04.07.2012 15:21 24,9 C 57 % 1016,0 hPa 0,0 l/m 3,2 km/h (1 Bft) SO 135 15,8 C 24,9 C
04.07.2012 15:26 25,3 C 56 % 1016,0 hPa 0,0 l/m 5,8 km/h (2 Bft) O 90 15,9 C 25,3 C
04.07.2012 15:31 25,6 C 55 % 1015,8 hPa 0,0 l/m 5,8 km/h (2 Bft) O-NO 67 15,9 C 25,6 C
04.07.2012 15:36 25,9 C 55 % 1015,8 hPa 0,0 l/m 6,1 km/h (2 Bft) SO 135 16,2 C 25,9 C
04.07.2012 15:41 26,1 C 54 % 1015,8 hPa 0,0 l/m 2,9 km/h (1 Bft) NO 45 16,0 C 26,1 C
04.07.2012 15:46 26,2 C 53 % 1015,8 hPa 0,0 l/m 4,0 km/h (1 Bft) NO 45 15,8 C 26,2 C
04.07.2012 15:51 26,1 C 53 % 1015,8 hPa 0,0 l/m 4,0 km/h (1 Bft) O-SO 112 15,8 C 26,1 C
04.07.2012 15:56 25,9 C 54 % 1015,7 hPa 0,0 l/m 4,0 km/h (1 Bft) SO 135 15,9 C 25,9 C
04.07.2012 16:01 25,8 C 54 % 1015,7 hPa 0,0 l/m 3,6 km/h (1 Bft) O-NO 67 15,8 C 25,8 C
04.07.2012 16:06 25,6 C 54 % 1015,7 hPa 0,0 l/m 3,6 km/h (1 Bft) O-SO 112 15,6 C 25,6 C
04.07.2012 16:11 25,9 C 54 % 1015,7 hPa 0,0 l/m 5,8 km/h (2 Bft) N-NO 22 15,9 C 25,9 C
04.07.2012 16:16 25,9 C 54 % 1015,6 hPa 0,0 l/m 6,5 km/h (2 Bft) NO 45 15,9 C 25,9 C
04.07.2012 16:21 25,8 C 54 % 1015,7 hPa 0,0 l/m 5,4 km/h (1 Bft) NO 45 15,8 C 25,8 C
04.07.2012 16:26 25,4 C 54 % 1015,6 hPa 0,0 l/m 3,6 km/h (1 Bft) NO 45 15,4 C 25,4 C
04.07.2012 16:31 25,5 C 55 % 1015,6 hPa 0,0 l/m 3,2 km/h (1 Bft) S-SO 157 15,8 C 25,5 C
04.07.2012 16:36 25,9 C 55 % 1015,3 hPa 0,0 l/m 2,9 km/h (1 Bft) O-NO 67 16,2 C 25,9 C
04.07.2012 16:41 26,1 C 54 % 1015,5 hPa 0,0 l/m 6,8 km/h (2 Bft) O-NO 67 16,0 C 26,1 C
04.07.2012 16:46 25,9 C 53 % 1015,5 hPa 0,0 l/m 8,6 km/h (2 Bft) S-SO 157 15,6 C 25,9 C
04.07.2012 16:51 26,1 C 54 % 1015,4 hPa 0,0 l/m 2,9 km/h (1 Bft) O-SO 112 16,0 C 26,1 C
04.07.2012 16:56 26,3 C 52 % 1015,4 hPa 0,0 l/m 11,9 km/h (2 Bft) O 90 15,6 C 26,3 C
04.07.2012 17:01 26,4 C 51 % 1015,2 hPa 0,0 l/m 10,8 km/h (2 Bft) O-NO 67 15,4 C 26,4 C
04.07.2012 17:06 26,4 C 52 % 1015,3 hPa 0,0 l/m 9,4 km/h (2 Bft) O-NO 67 15,7 C 26,4 C
04.07.2012 17:11 26,6 C 52 % 1015,3 hPa 0,0 l/m 19,4 km/h (3 Bft) O-NO 67 15,9 C 26,6 C
04.07.2012 17:16 26,5 C 52 % 1015,2 hPa 0,0 l/m 9,4 km/h (2 Bft) NO 45 15,8 C 26,5 C
04.07.2012 17:21 26,5 C 52 % 1015,3 hPa 0,0 l/m 7,2 km/h (2 Bft) O-SO 112 15,8 C 26,5 C
04.07.2012 17:26 26,4 C 52 % 1015,3 hPa 0,0 l/m 2,2 km/h (1 Bft) SO 135 15,7 C 26,4 C
04.07.2012 17:31 26,6 C 52 % 1015,3 hPa 0,0 l/m 3,6 km/h (1 Bft) O-NO 67 15,9 C 26,6 C
04.07.2012 17:36 26,6 C 51 % 1015,3 hPa 0,0 l/m 9,7 km/h (2 Bft) SO 135 15,6 C 26,6 C
04.07.2012 17:41 26,6 C 50 % 1015,2 hPa 0,0 l/m 3,6 km/h (1 Bft) O-SO 112 15,3 C 26,6 C
04.07.2012 17:46 26,8 C 50 % 1015,1 hPa 0,0 l/m 2,5 km/h (1 Bft) O-SO 112 15,5 C 26,8 C
04.07.2012 17:51 26,9 C 51 % 1015,0 hPa 0,0 l/m 8,6 km/h (2 Bft) SO 135 15,9 C 26,9 C
04.07.2012 17:56 27,0 C 50 % 1015,0 hPa 0,0 l/m 7,2 km/h (2 Bft) O-NO 67 15,7 C 27,0 C
04.07.2012 18:01 26,8 C 50 % 1015,0 hPa 0,0 l/m 8,3 km/h (2 Bft) O 90 15,5 C 26,8 C
04.07.2012 18:06 26,5 C 51 % 1014,9 hPa 0,0 l/m 6,5 km/h (2 Bft) O-NO 67 15,5 C 26,5 C
04.07.2012 18:11 26,3 C 52 % 1014,9 hPa 0,0 l/m 10,4 km/h (2 Bft) NO 45 15,6 C 26,3 C
04.07.2012 18:16 25,9 C 52 % 1015,0 hPa 0,0 l/m 11,2 km/h (2 Bft) SO 135 15,3 C 25,9 C
04.07.2012 18:21 25,8 C 52 % 1015,0 hPa 0,0 l/m 4,7 km/h (1 Bft) O-NO 67 15,2 C 25,8 C
04.07.2012 18:26 25,8 C 52 % 1015,0 hPa 0,0 l/m 3,6 km/h (1 Bft) SO 135 15,2 C 25,8 C
04.07.2012 18:31 25,9 C 52 % 1014,8 hPa 0,0 l/m 8,6 km/h (2 Bft) O-NO 67 15,3 C 25,9 C
04.07.2012 18:36 25,9 C 52 % 1014,9 hPa 0,0 l/m 4,0 km/h (1 Bft) SO 135 15,3 C 25,9 C
04.07.2012 18:41 25,9 C 53 % 1014,8 hPa 0,0 l/m 2,5 km/h (1 Bft) O-NO 67 15,6 C 25,9 C
04.07.2012 18:46 26,1 C 53 % 1014,8 hPa 0,0 l/m 4,0 km/h (1 Bft) O-NO 67 15,8 C 26,1 C
04.07.2012 18:51 26,2 C 52 % 1014,9 hPa 0,0 l/m 9,4 km/h (2 Bft) O-NO 67 15,6 C 26,2 C
04.07.2012 18:56 25,9 C 52 % 1014,9 hPa 0,0 l/m 6,5 km/h (2 Bft) O-NO 67 15,3 C 25,9 C
04.07.2012 19:01 25,9 C 53 % 1015,0 hPa 0,0 l/m 3,2 km/h (1 Bft) O-NO 67 15,6 C 25,9 C
04.07.2012 19:06 25,9 C 53 % 1015,0 hPa 0,0 l/m 4,0 km/h (1 Bft) SO 135 15,6 C 25,9 C
04.07.2012 19:11 25,9 C 54 % 1014,9 hPa 0,0 l/m 3,2 km/h (1 Bft) O 90 15,9 C 25,9 C
04.07.2012 19:16 25,8 C 54 % 1014,9 hPa 0,0 l/m 15,8 km/h (3 Bft) O-NO 67 15,8 C 25,8 C
04.07.2012 19:21 25,6 C 54 % 1015,0 hPa 0,0 l/m 3,2 km/h (1 Bft) O 90 15,6 C 25,6 C
04.07.2012 19:26 25,6 C 54 % 1015,0 hPa 0,0 l/m 6,1 km/h (2 Bft) O 90 15,6 C 25,6 C
04.07.2012 19:31 25,6 C 55 % 1015,0 hPa 0,0 l/m 10,1 km/h (2 Bft) O-NO 67 15,9 C 25,6 C
04.07.2012 19:36 25,4 C 54 % 1014,8 hPa 0,0 l/m 7,6 km/h (2 Bft) O 90 15,4 C 25,4 C
04.07.2012 19:41 25,2 C 55 % 1014,9 hPa 0,0 l/m 7,9 km/h (2 Bft) O-NO 67 15,5 C 25,2 C
04.07.2012 19:46 24,9 C 56 % 1014,9 hPa 0,0 l/m 4,7 km/h (1 Bft) O-SO 112 15,5 C 24,9 C
04.07.2012 19:51 24,7 C 57 % 1014,9 hPa 0,0 l/m 5,8 km/h (2 Bft) O-NO 67 15,6 C 24,7 C
04.07.2012 19:56 24,5 C 58 % 1014,9 hPa 0,0 l/m 3,6 km/h (1 Bft) O-NO 67 15,7 C 24,5 C
04.07.2012 20:01 24,3 C 58 % 1014,9 hPa 0,0 l/m 4,0 km/h (1 Bft) O 90 15,5 C 24,3 C
04.07.2012 20:06 24,2 C 59 % 1014,9 hPa 0,0 l/m 4,0 km/h (1 Bft) O-NO 67 15,7 C 24,2 C
04.07.2012 20:11 24,1 C 60 % 1015,0 hPa 0,0 l/m 3,2 km/h (1 Bft) SO 135 15,8 C 24,1 C
04.07.2012 20:16 23,9 C 60 % 1014,9 hPa 0,0 l/m 1,8 km/h (1 Bft) NO 45 15,7 C 23,9 C
04.07.2012 20:21 23,9 C 61 % 1015,0 hPa 0,0 l/m 0,0 km/h (0 Bft) SO 135 15,9 C 23,9 C
04.07.2012 20:26 23,9 C 61 % 1014,8 hPa 0,0 l/m 5,8 km/h (2 Bft) O-NO 67 15,9 C 23,9 C
04.07.2012 20:31 23,8 C 62 % 1014,9 hPa 0,0 l/m 4,3 km/h (1 Bft) O 90 16,1 C 23,8 C
04.07.2012 20:36 23,6 C 62 % 1014,9 hPa 0,0 l/m 1,8 km/h (1 Bft) O-NO 67 15,9 C 23,6 C
04.07.2012 20:41 23,5 C 63 % 1014,9 hPa 0,0 l/m 3,2 km/h (1 Bft) O-NO 67 16,0 C 23,5 C
04.07.2012 20:46 23,3 C 63 % 1015,0 hPa 0,0 l/m 3,2 km/h (1 Bft) SO 135 15,9 C 23,3 C
04.07.2012 20:51 23,2 C 64 % 1015,1 hPa 0,0 l/m 4,7 km/h (1 Bft) O 90 16,0 C 23,2 C
04.07.2012 20:56 23,1 C 64 % 1015,1 hPa 0,0 l/m 1,4 km/h (1 Bft) O 90 15,9 C 23,1 C
04.07.2012 21:01 22,9 C 64 % 1015,2 hPa 0,0 l/m 2,5 km/h (1 Bft) O-NO 67 15,7 C 22,9 C
04.07.2012 21:06 22,8 C 64 % 1015,3 hPa 0,0 l/m 2,2 km/h (1 Bft) O 90 15,6 C 22,8 C
04.07.2012 21:11 22,6 C 65 % 1015,3 hPa 0,0 l/m 1,8 km/h (1 Bft) O 90 15,7 C 22,6 C
04.07.2012 21:16 22,5 C 65 % 1015,3 hPa 0,0 l/m 0,0 km/h (0 Bft) O-NO 67 15,6 C 22,5 C
04.07.2012 21:21 22,4 C 65 % 1015,3 hPa 0,0 l/m 3,6 km/h (1 Bft) NO 45 15,5 C 22,4 C
04.07.2012 21:26 22,3 C 66 % 1015,4 hPa 0,0 l/m 0,0 km/h (0 Bft) O-NO 67 15,6 C 22,3 C
04.07.2012 21:31 22,1 C 66 % 1015,5 hPa 0,0 l/m 5,0 km/h (1 Bft) O 90 15,4 C 22,1 C
04.07.2012 21:36 21,9 C 67 % 1015,6 hPa 0,0 l/m 3,6 km/h (1 Bft) O-NO 67 15,5 C 21,9 C
04.07.2012 21:41 21,8 C 67 % 1015,6 hPa 0,0 l/m 2,9 km/h (1 Bft) O-NO 67 15,4 C 21,8 C
04.07.2012 21:46 21,8 C 68 % 1015,7 hPa 0,0 l/m 4,7 km/h (1 Bft) O-NO 67 15,6 C 21,8 C
04.07.2012 21:51 21,6 C 68 % 1015,6 hPa 0,0 l/m 2,9 km/h (1 Bft) O-NO 67 15,4 C 21,6 C
04.07.2012 21:56 21,5 C 69 % 1015,5 hPa 0,0 l/m 1,1 km/h (1 Bft) O-NO 67 15,6 C 21,5 C
04.07.2012 22:01 21,4 C 70 % 1015,5 hPa 0,0 l/m 5,0 km/h (1 Bft) O-NO 67 15,7 C 21,4 C
04.07.2012 22:06 21,3 C 70 % 1015,5 hPa 0,0 l/m 4,7 km/h (1 Bft) N-NO 22 15,6 C 21,3 C
04.07.2012 22:11 21,2 C 70 % 1015,6 hPa 0,0 l/m 8,3 km/h (2 Bft) O-NO 67 15,5 C 21,2 C
04.07.2012 22:16 21,1 C 71 % 1015,6 hPa 0,0 l/m 6,5 km/h (2 Bft) NO 45 15,6 C 21,1 C
04.07.2012 22:21 20,9 C 71 % 1015,6 hPa 0,0 l/m 6,8 km/h (2 Bft) NO 45 15,4 C 20,9 C
04.07.2012 22:26 20,8 C 71 % 1015,6 hPa 0,0 l/m 13,7 km/h (3 Bft) O-NO 67 15,3 C 20,8 C
04.07.2012 22:31 20,8 C 71 % 1015,7 hPa 0,0 l/m 7,6 km/h (2 Bft) O-NO 67 15,3 C 20,8 C
04.07.2012 22:36 20,6 C 72 % 1015,6 hPa 0,0 l/m 5,8 km/h (2 Bft) NO 45 15,4 C 20,6 C
04.07.2012 22:41 20,5 C 72 % 1015,6 hPa 0,0 l/m 4,0 km/h (1 Bft) O-NO 67 15,3 C 20,5 C
04.07.2012 22:46 20,4 C 72 % 1015,6 hPa 0,0 l/m 6,5 km/h (2 Bft) N-NO 22 15,2 C 20,4 C
04.07.2012 22:51 20,3 C 73 % 1015,6 hPa 0,0 l/m 7,2 km/h (2 Bft) O-NO 67 15,3 C 20,3 C
04.07.2012 22:56 20,2 C 73 % 1015,7 hPa 0,0 l/m 6,1 km/h (2 Bft) O-NO 67 15,2 C 20,2 C
04.07.2012 23:01 20,1 C 73 % 1015,7 hPa 0,0 l/m 6,8 km/h (2 Bft) NO 45 15,1 C 20,1 C
04.07.2012 23:06 20,0 C 74 % 1015,7 hPa 0,0 l/m 5,8 km/h (2 Bft) NO 45 15,2 C 20,0 C
04.07.2012 23:11 19,9 C 74 % 1015,8 hPa 0,0 l/m 4,0 km/h (1 Bft) O-NO 67 15,1 C 19,9 C
04.07.2012 23:16 19,9 C 74 % 1015,8 hPa 0,0 l/m 5,0 km/h (1 Bft) NO 45 15,1 C 19,9 C
04.07.2012 23:21 19,8 C 75 % 1015,9 hPa 0,0 l/m 5,0 km/h (1 Bft) O 90 15,2 C 19,8 C
04.07.2012 23:26 19,8 C 75 % 1015,8 hPa 0,0 l/m 2,9 km/h (1 Bft) N-NO 22 15,2 C 19,8 C
04.07.2012 23:31 19,6 C 75 % 1016,0 hPa 0,0 l/m 1,8 km/h (1 Bft) O-NO 67 15,0 C 19,6 C
04.07.2012 23:36 19,6 C 75 % 1016,0 hPa 0,0 l/m 2,5 km/h (1 Bft) O-NO 67 15,0 C 19,6 C
04.07.2012 23:41 19,5 C 76 % 1016,1 hPa 0,0 l/m 2,5 km/h (1 Bft) O-NO 67 15,2 C 19,5 C
04.07.2012 23:46 19,4 C 76 % 1016,1 hPa 0,0 l/m 2,5 km/h (1 Bft) O-NO 67 15,1 C 19,4 C
04.07.2012 23:51 19,3 C 76 % 1016,1 hPa 0,0 l/m 0,0 km/h (0 Bft) O-NO 67 15,0 C 19,3 C
04.07.2012 23:56 19,3 C 77 % 1015,9 hPa 0,0 l/m 2,9 km/h (1 Bft) NO 45 15,2 C 19,3 C
_ Min-Zeit 05:21 17:41 18:31 - 00:11 - - 03:31 05:21
Minimum _ 16,3 C 50 % 1014,8 hPa - 0,0 km/h (0 Bft) - - 14,2 C 16,3 C
_ Max-Zeit 17:56 05:11 00:21 00:01 17:11 - - 11:36 17:56
Maximum _ 27,0 C 88 % 1018,5 hPa 0,0 l/m 19,4 km/h
O-NO (3 Bft)
- - 17,5 C 27,0 C
Durchschnitt _ 21,3 C 71 % 1016,6 hPa #0,0 l/m 4,3 km/h (1 Bft) O-NO - 15,6 C 21,3 C
(c) by David Heller